Smartville, California
Current Conditions -  °F | °C
As of 7:58 PM on Tuesday 27 Jan 2015 (Local Time) from KBAB Reporting Station
Overcast Overcast  
Wind Chill: 51°   Ceiling: 19000
Heat Index: 51°   Visibility: 7mi
Dew Point: 51°   Wind: 5mph
Humidity: 100%   Direction: 330°NNW
Pressure: 30.24"   Gusts: NA
Location:  39.21°N, 121.3°W
Report Text: KBAB 280358Z AUTO 33004KT 7SM R33/5000FT OVC190 11/11 A3024 RMK AO2 SLP318 T01070107 $
Loading
Personal Weather Stations






























Interactive Weather Map New forecast layout! Learn more

10-Day Weather Forecast

Advertisements
Track Severe Weather on mobile